createdAt,value
2022-08-25T00:01:54.539Z,64.21
2022-08-25T00:04:25.586Z,64.28
2022-08-25T00:06:59.395Z,64.40
2022-08-25T00:09:34.028Z,64.44
2022-08-25T00:12:03.541Z,64.45
2022-08-25T00:14:34.481Z,64.55
2022-08-25T00:17:03.491Z,64.48
2022-08-25T00:19:35.032Z,64.49
2022-08-25T00:22:03.978Z,64.55
2022-08-25T00:24:32.402Z,64.63
2022-08-25T00:27:01.399Z,64.60
2022-08-25T00:29:31.312Z,64.59
2022-08-25T00:32:00.912Z,64.74
2022-08-25T00:34:33.413Z,64.81
2022-08-25T00:37:03.292Z,64.76
2022-08-25T00:39:33.317Z,65.02
2022-08-25T00:42:04.014Z,64.98
2022-08-25T00:44:35.204Z,64.97
2022-08-25T00:47:05.177Z,65.02
2022-08-25T00:49:37.347Z,65.07
2022-08-25T00:52:16.276Z,64.99
2022-08-25T00:54:49.368Z,65.11
2022-08-25T00:57:27.167Z,65.21
2022-08-25T01:00:09.003Z,65.18
2022-08-25T01:02:37.559Z,65.31
2022-08-25T01:05:08.037Z,65.33
2022-08-25T01:07:37.710Z,65.24
2022-08-25T01:10:09.203Z,65.31
2022-08-25T01:12:37.970Z,65.39
2022-08-25T01:15:09.563Z,65.58
2022-08-25T01:17:47.934Z,65.48
2022-08-25T01:20:18.880Z,65.63
2022-08-25T01:22:47.986Z,65.58
2022-08-25T01:25:33.810Z,65.65
2022-08-25T01:28:04.658Z,65.71
2022-08-25T01:30:34.565Z,65.72
2022-08-25T01:33:05.354Z,65.73
2022-08-25T01:35:34.253Z,65.69
2022-08-25T01:38:04.590Z,65.95
2022-08-25T01:40:33.990Z,65.98
2022-08-25T01:43:21.160Z,65.87
2022-08-25T01:45:50.129Z,65.93
2022-08-25T01:48:19.970Z,66.03
2022-08-25T01:50:48.247Z,65.98
2022-08-25T01:53:22.997Z,66.11
2022-08-25T01:55:51.371Z,66.03
2022-08-25T01:58:20.998Z,66.06
2022-08-25T02:00:53.744Z,66.04
2022-08-25T02:03:22.859Z,66.25
2022-08-25T02:05:52.908Z,66.20
2022-08-25T02:08:22.579Z,66.31
2022-08-25T02:10:51.996Z,66.28
2022-08-25T02:13:20.571Z,66.21
2022-08-25T02:15:57.205Z,66.25
2022-08-25T02:18:25.608Z,66.32
2022-08-25T02:20:53.911Z,66.31
2022-08-25T02:23:22.312Z,66.39
2022-08-25T02:25:50.684Z,66.44
2022-08-25T02:28:19.028Z,66.57
2022-08-25T02:30:47.567Z,66.73
2022-08-25T02:33:15.860Z,66.73
2022-08-25T02:35:44.463Z,66.72
2022-08-25T02:38:12.662Z,66.76
2022-08-25T02:40:41.288Z,66.78
2022-08-25T02:43:09.652Z,66.71
2022-08-25T02:45:38.028Z,66.66
2022-08-25T02:48:06.383Z,66.55
2022-08-25T02:50:34.845Z,66.68
2022-08-25T02:53:03.676Z,66.49
2022-08-25T02:55:32.029Z,66.59
2022-08-25T02:58:03.014Z,66.39
2022-08-25T03:00:31.363Z,66.53
2022-08-25T03:03:00.759Z,66.37
2022-08-25T03:05:29.228Z,66.42
2022-08-25T03:07:57.511Z,66.58
2022-08-25T03:10:27.204Z,66.66
2022-08-25T03:12:55.869Z,66.64
2022-08-25T03:15:25.112Z,66.66
2022-08-25T03:17:53.913Z,66.58
2022-08-25T03:20:23.432Z,66.57
2022-08-25T03:22:52.360Z,66.60
2022-08-25T03:25:39.307Z,66.71
2022-08-25T03:28:10.563Z,66.96
2022-08-25T03:30:39.342Z,66.81
2022-08-25T03:33:09.260Z,66.83
2022-08-25T03:35:37.734Z,66.85
2022-08-25T03:38:06.227Z,66.64
2022-08-25T03:40:34.800Z,66.72
2022-08-25T03:43:03.390Z,66.73
2022-08-25T03:45:31.795Z,66.78
2022-08-25T03:48:00.515Z,66.82
2022-08-25T03:50:29.071Z,66.96
2022-08-25T03:52:58.751Z,66.98
2022-08-25T03:55:28.271Z,67.12
2022-08-25T03:57:57.657Z,67.16
2022-08-25T04:00:25.944Z,67.14
2022-08-25T04:02:54.407Z,67.11
2022-08-25T04:05:22.698Z,67.37
2022-08-25T04:07:55.592Z,67.53
2022-08-25T04:10:24.641Z,67.66
2022-08-25T04:12:52.942Z,67.55
2022-08-25T04:15:21.462Z,67.44
2022-08-25T04:17:51.136Z,67.40
2022-08-25T04:20:20.499Z,67.19
2022-08-25T04:22:49.030Z,67.08
2022-08-25T04:25:17.546Z,66.99
2022-08-25T04:27:45.855Z,67.10
2022-08-25T04:30:15.859Z,67.18
2022-08-25T04:32:44.141Z,67.11
2022-08-25T04:35:12.450Z,67.20
2022-08-25T04:37:41.668Z,67.29
2022-08-25T04:40:12.365Z,67.26
2022-08-25T04:42:40.712Z,67.39
2022-08-25T04:45:09.769Z,67.44
2022-08-25T04:47:39.756Z,67.49
2022-08-25T04:50:09.197Z,67.38
2022-08-25T04:52:37.735Z,67.43
2022-08-25T04:55:06.945Z,67.48
2022-08-25T04:57:35.392Z,67.41
2022-08-25T05:00:06.170Z,67.43
2022-08-25T05:02:35.399Z,67.62
2022-08-25T05:05:03.975Z,67.50
2022-08-25T05:07:32.420Z,67.49
2022-08-25T05:10:01.043Z,67.31
2022-08-25T05:12:30.933Z,67.36
2022-08-25T05:15:22.133Z,67.42
2022-08-25T05:17:55.239Z,67.46
2022-08-25T05:20:25.103Z,67.86
2022-08-25T05:22:53.603Z,68.24
2022-08-25T05:25:21.902Z,68.06
2022-08-25T05:27:50.527Z,67.99
2022-08-25T05:30:19.215Z,67.64
2022-08-25T05:32:48.076Z,67.33
2022-08-25T05:35:16.508Z,66.82
2022-08-25T05:37:44.765Z,66.53
2022-08-25T05:40:14.306Z,66.45
2022-08-25T05:42:42.741Z,66.27
2022-08-25T05:45:16.736Z,66.03
2022-08-25T05:47:49.583Z,66.08
2022-08-25T05:50:19.207Z,65.98
2022-08-25T05:52:47.487Z,65.89
2022-08-25T05:55:16.015Z,65.99
2022-08-25T05:57:44.769Z,65.80
2022-08-25T06:00:14.891Z,65.78
2022-08-25T06:02:45.761Z,65.85
2022-08-25T06:05:17.214Z,66.09
2022-08-25T06:07:46.528Z,66.08
2022-08-25T06:10:15.941Z,65.84
2022-08-25T06:12:46.158Z,65.76
2022-08-25T06:15:17.928Z,65.72
2022-08-25T06:17:47.465Z,65.69
2022-08-25T06:20:18.821Z,65.81
2022-08-25T06:22:51.832Z,65.63
2022-08-25T06:25:23.315Z,65.69
2022-08-25T06:27:51.969Z,65.58
2022-08-25T06:30:25.706Z,65.41
2022-08-25T06:32:57.255Z,65.52
2022-08-25T06:35:26.021Z,65.23
2022-08-25T06:37:55.224Z,65.27
2022-08-25T06:40:24.747Z,65.28
2022-08-25T06:42:53.445Z,65.14
2022-08-25T06:45:21.934Z,65.25
2022-08-25T06:47:52.337Z,65.25
2022-08-25T06:50:21.074Z,65.24
2022-08-25T06:52:49.358Z,65.17
2022-08-25T06:55:18.101Z,65.10
2022-08-25T06:57:47.994Z,65.10
2022-08-25T07:00:17.208Z,64.95
2022-08-25T07:02:47.990Z,64.97
2022-08-25T07:05:26.915Z,64.83
2022-08-25T07:07:55.852Z,64.73
2022-08-25T07:10:24.438Z,64.68
2022-08-25T07:12:52.976Z,64.78
2022-08-25T07:15:21.369Z,64.69
2022-08-25T07:17:50.235Z,64.49
2022-08-25T07:20:19.533Z,64.48
2022-08-25T07:22:48.088Z,64.32
2022-08-25T07:25:17.858Z,64.48
2022-08-25T07:27:46.566Z,64.31
2022-08-25T07:30:16.651Z,64.37
2022-08-25T07:32:45.097Z,64.25
2022-08-25T07:35:18.816Z,64.23
2022-08-25T07:37:50.772Z,64.14
2022-08-25T07:40:21.815Z,64.03
2022-08-25T07:42:51.612Z,64.03
2022-08-25T07:45:29.217Z,64.14
2022-08-25T07:47:59.091Z,64.01
2022-08-25T07:50:30.857Z,63.90
2022-08-25T07:53:00.100Z,63.72
2022-08-25T07:55:29.975Z,63.76
2022-08-25T07:57:59.384Z,63.82
2022-08-25T08:00:29.698Z,63.65
2022-08-25T08:02:59.524Z,63.58
2022-08-25T08:05:28.806Z,63.29
2022-08-25T08:07:57.800Z,62.97
2022-08-25T08:10:53.566Z,62.95
2022-08-25T08:13:18.059Z,62.84
2022-08-25T08:15:47.899Z,62.78
2022-08-25T08:18:16.753Z,62.87
2022-08-25T08:20:48.318Z,62.79
2022-08-25T08:23:17.935Z,62.57
2022-08-25T08:25:46.256Z,62.55
2022-08-25T08:28:14.541Z,62.62
2022-08-25T08:30:53.686Z,62.49
2022-08-25T08:33:24.528Z,62.52
2022-08-25T08:36:00.995Z,62.50
2022-08-25T08:38:34.836Z,62.44
2022-08-25T08:41:54.276Z,62.51
2022-08-25T08:44:30.151Z,62.28
2022-08-25T08:47:05.276Z,62.16
2022-08-25T08:49:50.227Z,62.27
2022-08-25T08:52:24.306Z,62.20
2022-08-25T08:55:00.299Z,61.63
2022-08-25T08:57:31.404Z,61.54
2022-08-25T09:00:02.703Z,61.58
2022-08-25T09:02:39.413Z,61.61
2022-08-25T09:05:24.114Z,61.21
2022-08-25T09:07:57.084Z,60.90
2022-08-25T09:10:35.056Z,60.57
2022-08-25T09:13:15.406Z,60.31
2022-08-25T09:16:10.601Z,60.10
2022-08-25T09:18:54.588Z,59.55
2022-08-25T09:21:34.034Z,59.48
2022-08-25T09:24:21.052Z,59.27
2022-08-25T09:27:02.519Z,58.88
2022-08-25T09:29:42.286Z,58.63
2022-08-25T09:32:10.844Z,58.27
2022-08-25T09:34:46.109Z,58.09
2022-08-25T09:37:14.848Z,57.85
2022-08-25T09:39:43.174Z,57.38
2022-08-25T09:42:11.512Z,56.89
2022-08-25T09:44:43.115Z,56.58
2022-08-25T09:47:21.927Z,56.34
2022-08-25T09:49:56.640Z,56.09
2022-08-25T09:52:32.066Z,55.76
2022-08-25T09:55:20.573Z,55.55
2022-08-25T09:57:52.806Z,55.25
2022-08-25T10:00:24.935Z,54.92
2022-08-25T10:03:07.815Z,54.64
2022-08-25T10:05:46.536Z,54.15
2022-08-25T10:08:26.004Z,53.69
2022-08-25T10:10:57.056Z,53.46
2022-08-25T10:13:37.473Z,53.31
2022-08-25T10:16:20.011Z,53.15
2022-08-25T10:19:05.308Z,52.81
2022-08-25T10:21:34.218Z,52.62
2022-08-25T10:24:05.324Z,52.34
2022-08-25T10:26:48.228Z,51.92
2022-08-25T10:29:32.483Z,51.77
2022-08-25T10:32:12.130Z,51.38
2022-08-25T10:34:51.555Z,51.06
2022-08-25T10:37:35.192Z,50.80
2022-08-25T10:40:14.530Z,50.61
2022-08-25T10:43:00.375Z,50.18
2022-08-25T10:45:43.997Z,49.95
2022-08-25T10:48:42.435Z,49.65
2022-08-25T10:51:27.240Z,49.01
2022-08-25T10:54:07.144Z,48.91
2022-08-25T10:56:41.821Z,48.38
2022-08-25T10:59:38.748Z,48.25
2022-08-25T11:02:41.767Z,48.13
2022-08-25T11:05:17.305Z,47.94
2022-08-25T11:07:59.308Z,47.70
2022-08-25T11:10:36.604Z,47.41
2022-08-25T11:13:19.267Z,47.21
2022-08-25T11:16:16.158Z,46.79
2022-08-25T11:18:53.812Z,46.50
2022-08-25T11:21:27.109Z,46.48
2022-08-25T11:24:05.149Z,46.17
2022-08-25T11:26:37.998Z,45.96
2022-08-25T11:29:16.033Z,45.93
2022-08-25T11:31:52.778Z,45.61
2022-08-25T11:34:22.701Z,45.27
2022-08-25T11:36:54.607Z,45.14
2022-08-25T11:39:40.910Z,44.93
2022-08-25T11:42:25.746Z,44.80
2022-08-25T11:45:07.263Z,44.45
2022-08-25T11:47:49.786Z,44.53
2022-08-25T11:50:31.621Z,44.25
2022-08-25T11:53:16.341Z,43.96
2022-08-25T11:55:50.016Z,43.69
2022-08-25T11:58:40.625Z,43.58
2022-08-25T12:01:32.219Z,43.42
2022-08-25T12:04:16.840Z,43.02
2022-08-25T12:07:22.056Z,42.81
2022-08-25T12:10:22.720Z,42.49
2022-08-25T12:13:26.211Z,42.45
2022-08-25T12:16:00.885Z,42.42
2022-08-25T12:18:45.769Z,42.18
2022-08-25T12:21:30.982Z,41.98
2022-08-25T12:24:17.985Z,41.77
2022-08-25T12:26:53.720Z,41.69
2022-08-25T12:29:34.299Z,41.55
2022-08-25T12:32:20.703Z,41.31
2022-08-25T12:35:15.292Z,41.18
2022-08-25T12:38:00.532Z,41.23
2022-08-25T12:40:33.913Z,41.03
2022-08-25T12:43:07.776Z,40.93
2022-08-25T12:45:42.683Z,41.07
2022-08-25T12:48:41.727Z,41.03
2022-08-25T12:51:18.887Z,40.84
2022-08-25T12:53:50.817Z,40.69
2022-08-25T12:56:25.159Z,40.63
2022-08-25T12:59:03.343Z,40.70
2022-08-25T13:01:44.153Z,40.40
2022-08-25T13:04:33.178Z,40.42
2022-08-25T13:07:19.129Z,40.40
2022-08-25T13:10:20.644Z,40.04
2022-08-25T13:12:55.253Z,40.14
2022-08-25T13:15:34.089Z,40.01
2022-08-25T13:18:15.766Z,39.96
2022-08-25T13:20:46.706Z,39.79
2022-08-25T13:23:19.797Z,39.74
2022-08-25T13:25:52.063Z,39.68
2022-08-25T13:28:27.439Z,39.63
2022-08-25T13:31:16.678Z,39.69
2022-08-25T13:33:56.333Z,39.75
2022-08-25T13:36:51.883Z,39.49
2022-08-25T13:39:45.451Z,39.52
2022-08-25T13:42:16.924Z,39.35
2022-08-25T13:44:51.927Z,39.34
2022-08-25T13:47:43.475Z,39.33
2022-08-25T13:50:28.666Z,39.19
2022-08-25T13:52:59.912Z,39.06
2022-08-25T13:55:38.311Z,38.97
2022-08-25T13:58:24.868Z,39.06
2022-08-25T14:01:19.911Z,38.94
2022-08-25T14:03:54.632Z,39.01
2022-08-25T14:06:24.616Z,38.95
2022-08-25T14:09:15.722Z,38.84
2022-08-25T14:11:55.008Z,38.73
2022-08-25T14:14:35.226Z,38.74
2022-08-25T14:17:21.534Z,38.54
2022-08-25T14:19:57.120Z,38.50
2022-08-25T14:22:26.767Z,38.45
2022-08-25T14:24:55.518Z,38.49
2022-08-25T14:27:24.186Z,38.55
2022-08-25T14:29:53.041Z,38.39
2022-08-25T14:32:21.590Z,38.30
2022-08-25T14:34:50.197Z,38.28
2022-08-25T14:37:20.480Z,38.23
2022-08-25T14:39:54.445Z,38.22
2022-08-25T14:42:22.810Z,38.13
2022-08-25T14:44:54.656Z,38.10
2022-08-25T14:47:24.954Z,37.90
2022-08-25T14:49:53.286Z,37.94
2022-08-25T14:52:27.116Z,37.82
2022-08-25T14:54:56.746Z,37.91
2022-08-25T14:57:25.904Z,37.79
2022-08-25T14:59:54.216Z,37.84
2022-08-25T15:02:29.502Z,37.79
2022-08-25T15:05:05.287Z,37.72
2022-08-25T15:07:52.944Z,37.71
2022-08-25T15:10:21.923Z,37.56
2022-08-25T15:12:51.147Z,37.62
2022-08-25T15:15:25.865Z,37.61
2022-08-25T15:17:55.314Z,37.59
2022-08-25T15:20:27.810Z,37.57
2022-08-25T15:22:57.449Z,37.55
2022-08-25T15:25:26.582Z,37.53
2022-08-25T15:27:56.727Z,37.50
2022-08-25T15:30:30.672Z,37.46
2022-08-25T15:32:59.830Z,37.60
2022-08-25T15:35:29.160Z,37.47
2022-08-25T15:37:57.920Z,37.39
2022-08-25T15:40:26.328Z,37.38
2022-08-25T15:42:55.324Z,37.23
2022-08-25T15:45:24.594Z,37.21
2022-08-25T15:47:53.992Z,37.25
2022-08-25T15:50:26.098Z,37.14
2022-08-25T15:52:54.710Z,37.20
2022-08-25T15:55:23.081Z,37.08
2022-08-25T15:57:51.562Z,37.02
2022-08-25T16:00:21.662Z,37.06
2022-08-25T16:02:50.524Z,37.01
2022-08-25T16:05:25.780Z,36.95
2022-08-25T16:07:55.479Z,36.91
2022-08-25T16:10:23.980Z,36.92
2022-08-25T16:12:53.601Z,36.95
2022-08-25T16:15:23.239Z,36.85
2022-08-25T16:18:00.130Z,36.77
2022-08-25T16:20:30.233Z,36.79
2022-08-25T16:23:00.106Z,37.01
2022-08-25T16:25:28.700Z,36.82
2022-08-25T16:27:57.277Z,36.80
2022-08-25T16:30:25.832Z,36.79
2022-08-25T16:32:55.568Z,36.80
2022-08-25T16:35:24.363Z,36.69
2022-08-25T16:37:52.699Z,36.72
2022-08-25T16:40:23.915Z,36.80
2022-08-25T16:42:53.009Z,36.76
2022-08-25T16:45:21.961Z,36.82
2022-08-25T16:47:50.468Z,36.76
2022-08-25T16:50:18.980Z,36.85
2022-08-25T16:53:08.004Z,36.85
2022-08-25T16:55:39.250Z,36.80
2022-08-25T16:58:16.246Z,36.74
2022-08-25T17:00:47.314Z,36.85
2022-08-25T17:03:16.792Z,36.84
2022-08-25T17:05:45.173Z,36.88
2022-08-25T17:08:29.180Z,36.92
2022-08-25T17:11:08.456Z,37.00
2022-08-25T17:13:38.569Z,37.08
2022-08-25T17:16:07.858Z,37.17
2022-08-25T17:18:37.785Z,37.15
2022-08-25T17:21:11.899Z,37.32
2022-08-25T17:23:48.285Z,37.45
2022-08-25T17:26:20.474Z,37.50
2022-08-25T17:28:57.037Z,37.53
2022-08-25T17:31:29.945Z,37.59
2022-08-25T17:33:59.199Z,37.64
2022-08-25T17:36:28.408Z,37.77
2022-08-25T17:38:57.139Z,37.90
2022-08-25T17:41:25.878Z,37.98
2022-08-25T17:43:54.532Z,38.02
2022-08-25T17:46:23.792Z,38.16
2022-08-25T17:48:53.400Z,38.10
2022-08-25T17:51:22.405Z,38.23
2022-08-25T17:53:52.175Z,38.25
2022-08-25T17:56:22.833Z,38.30
2022-08-25T17:58:54.664Z,38.54
2022-08-25T18:01:26.120Z,38.45
2022-08-25T18:03:56.846Z,38.61
2022-08-25T18:06:26.839Z,38.66
2022-08-25T18:08:59.274Z,38.83
2022-08-25T18:11:30.196Z,38.89
2022-08-25T18:13:59.498Z,39.03
2022-08-25T18:16:28.524Z,39.18
2022-08-25T18:18:57.177Z,39.42
2022-08-25T18:21:30.676Z,39.57
2022-08-25T18:24:03.009Z,39.71
2022-08-25T18:26:32.507Z,39.79
2022-08-25T18:29:01.584Z,39.96
2022-08-25T18:31:30.105Z,40.19
2022-08-25T18:33:59.030Z,40.35
2022-08-25T18:36:28.078Z,40.47
2022-08-25T18:39:14.782Z,40.62
2022-08-25T18:41:45.508Z,40.76
2022-08-25T18:44:15.565Z,40.87
2022-08-25T18:46:45.543Z,41.00
2022-08-25T18:49:16.641Z,41.15
2022-08-25T18:51:47.141Z,41.34
2022-08-25T18:54:23.212Z,41.48
2022-08-25T18:56:53.826Z,41.69
2022-08-25T18:59:23.755Z,41.86
2022-08-25T19:01:54.221Z,42.03
2022-08-25T19:04:31.293Z,42.15
2022-08-25T19:07:01.726Z,42.29
2022-08-25T19:09:32.260Z,42.44
2022-08-25T19:12:02.004Z,42.42
2022-08-25T19:14:31.087Z,42.57
2022-08-25T19:17:00.874Z,42.69
2022-08-25T19:19:30.765Z,42.91
2022-08-25T19:21:59.979Z,43.00
2022-08-25T19:24:29.253Z,43.10
2022-08-25T19:27:01.918Z,43.09
2022-08-25T19:29:31.060Z,43.22
2022-08-25T19:32:01.616Z,43.35
2022-08-25T19:34:34.670Z,43.32
2022-08-25T19:37:05.758Z,43.44
2022-08-25T19:39:39.177Z,43.69
2022-08-25T19:42:31.711Z,43.74
2022-08-25T19:44:58.986Z,43.86
2022-08-25T19:47:29.146Z,43.93
2022-08-25T19:49:58.181Z,44.08
2022-08-25T19:52:26.892Z,44.12
2022-08-25T19:54:57.072Z,44.31
2022-08-25T19:57:28.555Z,44.41
2022-08-25T20:00:15.256Z,44.56
2022-08-25T20:02:44.566Z,44.69
2022-08-25T20:05:14.376Z,44.90
2022-08-25T20:07:43.830Z,44.94
2022-08-25T20:10:14.541Z,44.95
2022-08-25T20:12:44.393Z,45.06
2022-08-25T20:15:16.436Z,45.22
2022-08-25T20:17:45.593Z,45.45
2022-08-25T20:20:18.231Z,45.49
2022-08-25T20:22:48.699Z,45.68
2022-08-25T20:25:19.591Z,45.80
2022-08-25T20:27:51.390Z,45.87
2022-08-25T20:30:22.605Z,46.00
2022-08-25T20:32:52.352Z,46.07
2022-08-25T20:35:21.349Z,46.18
2022-08-25T20:37:58.849Z,46.28
2022-08-25T20:40:29.971Z,46.39
2022-08-25T20:43:01.637Z,46.47
2022-08-25T20:45:31.691Z,46.65
2022-08-25T20:48:00.725Z,46.74
2022-08-25T20:50:29.221Z,46.83
2022-08-25T20:52:58.172Z,46.99
2022-08-25T20:55:28.385Z,47.15
2022-08-25T20:57:56.766Z,47.16
2022-08-25T21:00:25.279Z,47.25
2022-08-25T21:02:54.812Z,47.35
2022-08-25T21:05:23.205Z,47.49
2022-08-25T21:07:51.847Z,47.66
2022-08-25T21:10:20.728Z,47.68
2022-08-25T21:12:49.125Z,47.65
2022-08-25T21:15:23.003Z,47.76
2022-08-25T21:17:54.512Z,47.94
2022-08-25T21:20:24.590Z,47.94
2022-08-25T21:22:53.876Z,48.17
2022-08-25T21:25:22.625Z,48.31
2022-08-25T21:27:50.960Z,48.35
2022-08-25T21:30:19.518Z,48.46
2022-08-25T21:32:52.978Z,48.49
2022-08-25T21:35:23.059Z,48.62
2022-08-25T21:37:53.214Z,48.60
2022-08-25T21:40:22.886Z,48.69
2022-08-25T21:42:52.045Z,48.84
2022-08-25T21:51:43.347Z,49.09
2022-08-25T21:54:14.108Z,49.11
2022-08-25T21:56:45.592Z,49.20
2022-08-25T21:59:16.321Z,49.21
2022-08-25T22:01:45.390Z,49.43
2022-08-25T22:04:14.976Z,49.47
2022-08-25T22:06:43.710Z,49.66
2022-08-25T22:09:13.722Z,49.60
2022-08-25T22:11:44.100Z,49.84
2022-08-25T22:14:13.773Z,49.80
2022-08-25T22:16:43.276Z,49.98
2022-08-25T22:19:13.489Z,50.03
2022-08-25T22:21:44.564Z,50.10
2022-08-25T22:24:12.913Z,50.19
2022-08-25T22:26:42.104Z,50.25
2022-08-25T22:29:25.050Z,50.28
2022-08-25T22:31:57.837Z,50.32
2022-08-25T22:34:32.465Z,50.48
2022-08-25T22:37:03.710Z,50.46
2022-08-25T22:39:34.353Z,50.56
2022-08-25T22:42:03.264Z,50.78
2022-08-25T22:44:31.658Z,50.68
2022-08-25T22:47:00.128Z,50.79
2022-08-25T22:49:29.378Z,51.01
2022-08-25T22:51:58.505Z,51.06
2022-08-25T22:54:27.425Z,51.16
2022-08-25T22:56:55.841Z,51.10
2022-08-25T22:59:25.383Z,51.16
2022-08-25T23:01:54.866Z,51.15
2022-08-25T23:04:25.214Z,51.22
2022-08-25T23:06:53.672Z,51.29
2022-08-25T23:09:22.207Z,51.43
2022-08-25T23:11:51.213Z,51.54
2022-08-25T23:14:19.752Z,51.53
2022-08-25T23:16:50.291Z,51.70
2022-08-25T23:19:19.238Z,51.84
2022-08-25T23:22:02.780Z,51.83
2022-08-25T23:24:31.536Z,52.01
2022-08-25T23:27:01.152Z,51.96
2022-08-25T23:29:31.464Z,52.11
2022-08-25T23:32:00.195Z,52.24
2022-08-25T23:34:29.032Z,52.23
2022-08-25T23:36:57.818Z,52.36
2022-08-25T23:39:26.099Z,52.59
2022-08-25T23:41:54.391Z,52.69
2022-08-25T23:44:25.607Z,52.68
2022-08-25T23:46:54.457Z,52.75
2022-08-25T23:49:24.341Z,52.73
2022-08-25T23:51:55.120Z,52.76
2022-08-25T23:54:31.046Z,52.92
2022-08-25T23:57:01.688Z,53.04
2022-08-25T23:59:30.123Z,53.02
